sensor_id;sensor_type;location;lat;lon;timestamp;temperature;humidity
5492;DHT22;2768;53.540;10.224;2024-02-26T00:01:44;5.70;99.90
5492;DHT22;2768;53.540;10.224;2024-02-26T00:07:37;5.80;99.90
5492;DHT22;2768;53.540;10.224;2024-02-26T00:13:32;5.50;99.90
5492;DHT22;2768;53.540;10.224;2024-02-26T00:19:25;5.40;99.90
5492;DHT22;2768;53.540;10.224;2024-02-26T00:25:19;5.70;99.90
5492;DHT22;2768;53.540;10.224;2024-02-26T00:31:14;5.60;99.90
5492;DHT22;2768;53.540;10.224;2024-02-26T00:37:07;5.30;99.90
5492;DHT22;2768;53.540;10.224;2024-02-26T00:43:00;5.60;99.90
5492;DHT22;2768;53.540;10.224;2024-02-26T00:48:55;5.20;99.90
5492;DHT22;2768;53.540;10.224;2024-02-26T00:54:48;5.20;99.90
5492;DHT22;2768;53.540;10.224;2024-02-26T01:00:41;5.10;99.90
5492;DHT22;2768;53.540;10.224;2024-02-26T01:06:36;5.50;99.90
5492;DHT22;2768;53.540;10.224;2024-02-26T01:12:29;5.20;99.90
5492;DHT22;2768;53.540;10.224;2024-02-26T01:18:22;5.10;99.90
5492;DHT22;2768;53.540;10.224;2024-02-26T01:24:18;5.20;99.90
5492;DHT22;2768;53.540;10.224;2024-02-26T01:30:12;5.10;99.90
5492;DHT22;2768;53.540;10.224;2024-02-26T01:36:08;4.80;99.90
5492;DHT22;2768;53.540;10.224;2024-02-26T01:42:03;4.50;99.90
5492;DHT22;2768;53.540;10.224;2024-02-26T01:47:57;4.60;99.90
5492;DHT22;2768;53.540;10.224;2024-02-26T01:53:50;4.80;99.90
5492;DHT22;2768;53.540;10.224;2024-02-26T01:59:45;4.90;99.90
5492;DHT22;2768;53.540;10.224;2024-02-26T02:05:39;4.80;99.90
5492;DHT22;2768;53.540;10.224;2024-02-26T02:11:34;4.50;99.90
5492;DHT22;2768;53.540;10.224;2024-02-26T02:17:30;4.60;99.90
5492;DHT22;2768;53.540;10.224;2024-02-26T02:23:25;4.70;99.90
5492;DHT22;2768;53.540;10.224;2024-02-26T02:29:18;4.60;99.90
5492;DHT22;2768;53.540;10.224;2024-02-26T02:35:11;4.50;99.90
5492;DHT22;2768;53.540;10.224;2024-02-26T02:41:06;4.60;99.90
5492;DHT22;2768;53.540;10.224;2024-02-26T02:46:59;4.60;99.90
5492;DHT22;2768;53.540;10.224;2024-02-26T02:52:52;4.30;99.90
5492;DHT22;2768;53.540;10.224;2024-02-26T02:58:47;4.40;99.90
5492;DHT22;2768;53.540;10.224;2024-02-26T03:04:40;4.50;99.90
5492;DHT22;2768;53.540;10.224;2024-02-26T03:10:34;4.30;99.90
5492;DHT22;2768;53.540;10.224;2024-02-26T03:16:28;4.30;99.90
5492;DHT22;2768;53.540;10.224;2024-02-26T03:22:22;4.20;99.90
5492;DHT22;2768;53.540;10.224;2024-02-26T03:28:15;4.10;99.90
5492;DHT22;2768;53.540;10.224;2024-02-26T03:34:09;4.10;99.90
5492;DHT22;2768;53.540;10.224;2024-02-26T03:40:05;4.10;99.90
5492;DHT22;2768;53.540;10.224;2024-02-26T03:45:59;4.20;99.90
5492;DHT22;2768;53.540;10.224;2024-02-26T03:51:54;4.10;99.90
5492;DHT22;2768;53.540;10.224;2024-02-26T03:57:47;3.80;99.90
5492;DHT22;2768;53.540;10.224;2024-02-26T04:03:41;3.80;99.90
5492;DHT22;2768;53.540;10.224;2024-02-26T04:09:37;3.70;99.90
5492;DHT22;2768;53.540;10.224;2024-02-26T04:15:30;3.90;99.90
5492;DHT22;2768;53.540;10.224;2024-02-26T04:21:23;3.90;99.90
5492;DHT22;2768;53.540;10.224;2024-02-26T04:27:18;3.90;99.90
5492;DHT22;2768;53.540;10.224;2024-02-26T04:33:11;3.60;99.90
5492;DHT22;2768;53.540;10.224;2024-02-26T04:39:04;3.90;99.90
5492;DHT22;2768;53.540;10.224;2024-02-26T04:45:00;3.50;99.90
5492;DHT22;2768;53.540;10.224;2024-02-26T04:50:53;3.90;99.90
5492;DHT22;2768;53.540;10.224;2024-02-26T04:56:47;4.00;99.90
5492;DHT22;2768;53.540;10.224;2024-02-26T05:02:42;3.70;99.90
5492;DHT22;2768;53.540;10.224;2024-02-26T05:08:36;3.50;99.90
5492;DHT22;2768;53.540;10.224;2024-02-26T05:14:30;3.40;99.90
5492;DHT22;2768;53.540;10.224;2024-02-26T05:20:24;3.50;99.90
5492;DHT22;2768;53.540;10.224;2024-02-26T05:26:21;3.30;99.90
5492;DHT22;2768;53.540;10.224;2024-02-26T05:32:14;3.30;99.90
5492;DHT22;2768;53.540;10.224;2024-02-26T05:38:09;3.20;99.90
5492;DHT22;2768;53.540;10.224;2024-02-26T05:44:02;3.20;99.90
5492;DHT22;2768;53.540;10.224;2024-02-26T05:49:55;3.60;99.90
5492;DHT22;2768;53.540;10.224;2024-02-26T05:55:52;3.50;99.90
5492;DHT22;2768;53.540;10.224;2024-02-26T06:01:45;3.70;99.90
5492;DHT22;2768;53.540;10.224;2024-02-26T06:07:39;3.60;99.90
5492;DHT22;2768;53.540;10.224;2024-02-26T06:13:33;3.50;99.90
5492;DHT22;2768;53.540;10.224;2024-02-26T06:19:26;3.90;99.90
5492;DHT22;2768;53.540;10.224;2024-02-26T06:25:20;3.50;99.90
5492;DHT22;2768;53.540;10.224;2024-02-26T06:31:15;3.60;99.90
5492;DHT22;2768;53.540;10.224;2024-02-26T06:37:09;3.80;99.90
5492;DHT22;2768;53.540;10.224;2024-02-26T06:43:02;4.00;99.90
5492;DHT22;2768;53.540;10.224;2024-02-26T06:48:57;3.90;99.90
5492;DHT22;2768;53.540;10.224;2024-02-26T06:54:51;4.00;99.90
5492;DHT22;2768;53.540;10.224;2024-02-26T07:00:44;4.10;99.90
5492;DHT22;2768;53.540;10.224;2024-02-26T07:06:39;4.20;99.90
5492;DHT22;2768;53.540;10.224;2024-02-26T07:12:33;4.00;99.90
5492;DHT22;2768;53.540;10.224;2024-02-26T07:18:26;3.90;99.90
5492;DHT22;2768;53.540;10.224;2024-02-26T07:24:21;4.00;99.90
5492;DHT22;2768;53.540;10.224;2024-02-26T07:30:15;4.20;99.90
5492;DHT22;2768;53.540;10.224;2024-02-26T07:36:08;4.30;99.90
5492;DHT22;2768;53.540;10.224;2024-02-26T07:42:03;4.50;99.90
5492;DHT22;2768;53.540;10.224;2024-02-26T07:47:57;4.50;99.90
5492;DHT22;2768;53.540;10.224;2024-02-26T07:53:50;4.40;99.90
5492;DHT22;2768;53.540;10.224;2024-02-26T07:59:46;4.80;99.90
5492;DHT22;2768;53.540;10.224;2024-02-26T08:05:42;4.80;99.90
5492;DHT22;2768;53.540;10.224;2024-02-26T08:11:36;4.90;99.90
5492;DHT22;2768;53.540;10.224;2024-02-26T08:17:31;5.10;99.90
5492;DHT22;2768;53.540;10.224;2024-02-26T08:23:24;5.20;99.90
5492;DHT22;2768;53.540;10.224;2024-02-26T08:29:18;5.00;99.90
5492;DHT22;2768;53.540;10.224;2024-02-26T08:35:12;5.20;99.90
5492;DHT22;2768;53.540;10.224;2024-02-26T08:41:05;5.20;99.90
5492;DHT22;2768;53.540;10.224;2024-02-26T08:46:58;5.40;99.90
5492;DHT22;2768;53.540;10.224;2024-02-26T08:52:54;5.50;99.90
5492;DHT22;2768;53.540;10.224;2024-02-26T08:58:47;5.70;99.90
5492;DHT22;2768;53.540;10.224;2024-02-26T09:04:43;5.80;99.90
5492;DHT22;2768;53.540;10.224;2024-02-26T09:10:38;5.80;99.90
5492;DHT22;2768;53.540;10.224;2024-02-26T09:16:32;5.90;99.90
5492;DHT22;2768;53.540;10.224;2024-02-26T09:22:25;6.00;99.90
5492;DHT22;2768;53.540;10.224;2024-02-26T09:28:19;6.20;99.90
5492;DHT22;2768;53.540;10.224;2024-02-26T09:34:12;6.30;99.90
5492;DHT22;2768;53.540;10.224;2024-02-26T09:40:06;6.40;99.90
5492;DHT22;2768;53.540;10.224;2024-02-26T09:46:04;6.50;99.90
5492;DHT22;2768;53.540;10.224;2024-02-26T09:51:59;6.60;99.90
5492;DHT22;2768;53.540;10.224;2024-02-26T09:57:54;6.60;99.90
5492;DHT22;2768;53.540;10.224;2024-02-26T10:03:54;6.70;99.90
5492;DHT22;2768;53.540;10.224;2024-02-26T10:09:48;6.70;99.90
5492;DHT22;2768;53.540;10.224;2024-02-26T10:15:45;6.70;99.90
5492;DHT22;2768;53.540;10.224;2024-02-26T10:21:40;6.80;99.90
5492;DHT22;2768;53.540;10.224;2024-02-26T10:27:34;6.90;99.90
5492;DHT22;2768;53.540;10.224;2024-02-26T10:33:28;6.90;99.90
5492;DHT22;2768;53.540;10.224;2024-02-26T10:39:27;7.00;99.90
5492;DHT22;2768;53.540;10.224;2024-02-26T10:45:22;7.10;99.90
5492;DHT22;2768;53.540;10.224;2024-02-26T10:51:16;7.20;99.90
5492;DHT22;2768;53.540;10.224;2024-02-26T10:57:13;7.30;99.90
5492;DHT22;2768;53.540;10.224;2024-02-26T11:03:09;7.40;99.90
5492;DHT22;2768;53.540;10.224;2024-02-26T11:09:05;7.50;99.90
5492;DHT22;2768;53.540;10.224;2024-02-26T11:15:01;7.50;99.90
5492;DHT22;2768;53.540;10.224;2024-02-26T11:20:56;7.60;99.90
5492;DHT22;2768;53.540;10.224;2024-02-26T11:26:52;7.70;99.90
5492;DHT22;2768;53.540;10.224;2024-02-26T11:32:52;7.80;99.90
5492;DHT22;2768;53.540;10.224;2024-02-26T11:38:46;7.80;99.90
5492;DHT22;2768;53.540;10.224;2024-02-26T11:44:44;7.90;99.90
5492;DHT22;2768;53.540;10.224;2024-02-26T11:50:41;7.90;99.90
5492;DHT22;2768;53.540;10.224;2024-02-26T11:56:34;8.00;99.90
5492;DHT22;2768;53.540;10.224;2024-02-26T12:02:39;8.10;99.90
5492;DHT22;2768;53.540;10.224;2024-02-26T12:08:38;8.20;99.90
5492;DHT22;2768;53.540;10.224;2024-02-26T12:14:33;8.30;99.90
5492;DHT22;2768;53.540;10.224;2024-02-26T12:20:28;8.40;99.90
5492;DHT22;2768;53.540;10.224;2024-02-26T12:26:23;8.50;99.90
5492;DHT22;2768;53.540;10.224;2024-02-26T12:32:17;8.70;99.90
5492;DHT22;2768;53.540;10.224;2024-02-26T12:38:12;8.60;99.90
5492;DHT22;2768;53.540;10.224;2024-02-26T12:44:07;8.50;99.90
5492;DHT22;2768;53.540;10.224;2024-02-26T12:50:01;8.70;99.90
5492;DHT22;2768;53.540;10.224;2024-02-26T12:56:00;8.90;99.90
5492;DHT22;2768;53.540;10.224;2024-02-26T13:01:58;8.90;99.90
5492;DHT22;2768;53.540;10.224;2024-02-26T13:07:51;8.60;99.90
5492;DHT22;2768;53.540;10.224;2024-02-26T13:13:47;8.70;99.90
5492;DHT22;2768;53.540;10.224;2024-02-26T13:19:50;8.90;99.90
5492;DHT22;2768;53.540;10.224;2024-02-26T13:25:44;9.30;99.90
5492;DHT22;2768;53.540;10.224;2024-02-26T13:31:39;9.50;99.90
5492;DHT22;2768;53.540;10.224;2024-02-26T13:37:38;9.40;99.90
5492;DHT22;2768;53.540;10.224;2024-02-26T13:43:31;9.40;99.90
5492;DHT22;2768;53.540;10.224;2024-02-26T13:49:24;9.50;99.90
5492;DHT22;2768;53.540;10.224;2024-02-26T13:55:20;9.80;98.40
5492;DHT22;2768;53.540;10.224;2024-02-26T14:01:13;10.20;78.90
5492;DHT22;2768;53.540;10.224;2024-02-26T14:07:07;9.90;64.60
5492;DHT22;2768;53.540;10.224;2024-02-26T14:13:03;10.00;67.60
5492;DHT22;2768;53.540;10.224;2024-02-26T14:18:56;10.00;38.70
5492;DHT22;2768;53.540;10.224;2024-02-26T14:24:49;9.70;33.70
5492;DHT22;2768;53.540;10.224;2024-02-26T14:30:44;9.60;31.80
5492;DHT22;2768;53.540;10.224;2024-02-26T14:36:38;9.50;32.30
5492;DHT22;2768;53.540;10.224;2024-02-26T14:42:32;9.70;36.70
5492;DHT22;2768;53.540;10.224;2024-02-26T14:48:27;9.90;28.90
5492;DHT22;2768;53.540;10.224;2024-02-26T14:54:22;9.70;12.60
5492;DHT22;2768;53.540;10.224;2024-02-26T15:00:15;9.30;19.10
5492;DHT22;2768;53.540;10.224;2024-02-26T15:06:10;9.20;34.60
5492;DHT22;2768;53.540;10.224;2024-02-26T15:12:04;9.10;54.50
5492;DHT22;2768;53.540;10.224;2024-02-26T15:18:01;8.80;64.70
5492;DHT22;2768;53.540;10.224;2024-02-26T15:23:56;8.60;77.70
5492;DHT22;2768;53.540;10.224;2024-02-26T15:29:59;8.50;96.80
5492;DHT22;2768;53.540;10.224;2024-02-26T15:35:53;8.30;99.90
5492;DHT22;2768;53.540;10.224;2024-02-26T15:41:48;8.30;99.90
5492;DHT22;2768;53.540;10.224;2024-02-26T15:47:43;8.20;99.90
5492;DHT22;2768;53.540;10.224;2024-02-26T15:53:36;8.00;99.90
5492;DHT22;2768;53.540;10.224;2024-02-26T15:59:32;7.90;99.90
5492;DHT22;2768;53.540;10.224;2024-02-26T16:05:25;7.80;99.90
5492;DHT22;2768;53.540;10.224;2024-02-26T16:11:19;7.80;99.90
5492;DHT22;2768;53.540;10.224;2024-02-26T16:17:17;7.90;99.90
5492;DHT22;2768;53.540;10.224;2024-02-26T16:23:12;7.60;99.90
5492;DHT22;2768;53.540;10.224;2024-02-26T16:29:05;7.30;99.90
5492;DHT22;2768;53.540;10.224;2024-02-26T16:35:01;7.30;99.90
5492;DHT22;2768;53.540;10.224;2024-02-26T16:40:55;7.50;99.90
5492;DHT22;2768;53.540;10.224;2024-02-26T16:46:48;7.40;99.90
5492;DHT22;2768;53.540;10.224;2024-02-26T16:53:03;7.50;99.90
5492;DHT22;2768;53.540;10.224;2024-02-26T16:58:56;7.40;99.90
5492;DHT22;2768;53.540;10.224;2024-02-26T17:04:50;7.40;99.90
5492;DHT22;2768;53.540;10.224;2024-02-26T17:10:45;7.40;99.90
5492;DHT22;2768;53.540;10.224;2024-02-26T17:16:38;7.30;99.90
5492;DHT22;2768;53.540;10.224;2024-02-26T17:22:32;7.30;99.90
5492;DHT22;2768;53.540;10.224;2024-02-26T17:28:26;7.20;99.90
5492;DHT22;2768;53.540;10.224;2024-02-26T17:34:19;7.20;99.90
5492;DHT22;2768;53.540;10.224;2024-02-26T17:40:13;7.20;99.90
5492;DHT22;2768;53.540;10.224;2024-02-26T17:46:08;7.10;99.90
5492;DHT22;2768;53.540;10.224;2024-02-26T17:52:02;7.10;99.90
5492;DHT22;2768;53.540;10.224;2024-02-26T17:57:56;7.00;99.90
5492;DHT22;2768;53.540;10.224;2024-02-26T18:03:50;6.80;99.90
5492;DHT22;2768;53.540;10.224;2024-02-26T18:09:45;7.00;99.90
5492;DHT22;2768;53.540;10.224;2024-02-26T18:15:39;6.80;99.90
5492;DHT22;2768;53.540;10.224;2024-02-26T18:21:33;6.60;99.90
5492;DHT22;2768;53.540;10.224;2024-02-26T18:27:27;6.60;99.90
5492;DHT22;2768;53.540;10.224;2024-02-26T18:33:21;6.50;99.90
5492;DHT22;2768;53.540;10.224;2024-02-26T18:39:17;6.50;99.90
5492;DHT22;2768;53.540;10.224;2024-02-26T18:45:11;6.60;99.90
5492;DHT22;2768;53.540;10.224;2024-02-26T18:51:04;6.60;99.90
5492;DHT22;2768;53.540;10.224;2024-02-26T18:56:59;6.60;99.90
5492;DHT22;2768;53.540;10.224;2024-02-26T19:02:53;6.60;99.90
5492;DHT22;2768;53.540;10.224;2024-02-26T19:08:46;6.40;99.90
5492;DHT22;2768;53.540;10.224;2024-02-26T19:14:41;6.40;99.90
5492;DHT22;2768;53.540;10.224;2024-02-26T19:20:35;6.40;99.90
5492;DHT22;2768;53.540;10.224;2024-02-26T19:26:28;6.30;99.90
5492;DHT22;2768;53.540;10.224;2024-02-26T19:32:23;6.50;99.90
5492;DHT22;2768;53.540;10.224;2024-02-26T19:38:16;6.30;99.90
5492;DHT22;2768;53.540;10.224;2024-02-26T19:44:11;6.00;99.90
5492;DHT22;2768;53.540;10.224;2024-02-26T19:50:07;6.00;99.90
5492;DHT22;2768;53.540;10.224;2024-02-26T19:56:01;5.80;99.90
5492;DHT22;2768;53.540;10.224;2024-02-26T20:01:57;5.60;99.90
5492;DHT22;2768;53.540;10.224;2024-02-26T20:07:52;5.90;99.90
5492;DHT22;2768;53.540;10.224;2024-02-26T20:13:45;5.80;99.90
5492;DHT22;2768;53.540;10.224;2024-02-26T20:19:38;6.00;99.90
5492;DHT22;2768;53.540;10.224;2024-02-26T20:25:35;6.00;99.90
5492;DHT22;2768;53.540;10.224;2024-02-26T20:31:30;5.90;99.90
5492;DHT22;2768;53.540;10.224;2024-02-26T20:37:23;5.70;99.90
5492;DHT22;2768;53.540;10.224;2024-02-26T20:43:21;5.80;99.90
5492;DHT22;2768;53.540;10.224;2024-02-26T20:49:14;5.80;99.90
5492;DHT22;2768;53.540;10.224;2024-02-26T20:55:10;5.90;99.90
5492;DHT22;2768;53.540;10.224;2024-02-26T21:01:05;5.90;99.90
5492;DHT22;2768;53.540;10.224;2024-02-26T21:06:59;5.90;99.90
5492;DHT22;2768;53.540;10.224;2024-02-26T21:12:52;5.90;99.90
5492;DHT22;2768;53.540;10.224;2024-02-26T21:18:47;5.70;99.90
5492;DHT22;2768;53.540;10.224;2024-02-26T21:24:41;5.60;99.90
5492;DHT22;2768;53.540;10.224;2024-02-26T21:30:34;5.50;99.90
5492;DHT22;2768;53.540;10.224;2024-02-26T21:36:29;5.70;99.90
5492;DHT22;2768;53.540;10.224;2024-02-26T21:42:25;5.70;99.90
5492;DHT22;2768;53.540;10.224;2024-02-26T21:48:19;5.80;99.90
5492;DHT22;2768;53.540;10.224;2024-02-26T21:54:14;5.90;99.90
5492;DHT22;2768;53.540;10.224;2024-02-26T22:00:08;5.60;99.90
5492;DHT22;2768;53.540;10.224;2024-02-26T22:06:04;5.50;99.90
5492;DHT22;2768;53.540;10.224;2024-02-26T22:11:59;5.80;99.90
5492;DHT22;2768;53.540;10.224;2024-02-26T22:17:52;5.70;99.90
5492;DHT22;2768;53.540;10.224;2024-02-26T22:23:46;5.50;99.90
5492;DHT22;2768;53.540;10.224;2024-02-26T22:29:40;5.50;99.90
5492;DHT22;2768;53.540;10.224;2024-02-26T22:35:34;5.50;99.90
5492;DHT22;2768;53.540;10.224;2024-02-26T22:41:27;5.60;99.90
5492;DHT22;2768;53.540;10.224;2024-02-26T22:47:22;5.70;99.90
5492;DHT22;2768;53.540;10.224;2024-02-26T22:53:15;5.70;99.90
5492;DHT22;2768;53.540;10.224;2024-02-26T22:59:08;5.50;99.90
5492;DHT22;2768;53.540;10.224;2024-02-26T23:05:03;5.50;99.90
5492;DHT22;2768;53.540;10.224;2024-02-26T23:10:57;5.30;99.90
5492;DHT22;2768;53.540;10.224;2024-02-26T23:16:54;5.40;99.90
5492;DHT22;2768;53.540;10.224;2024-02-26T23:22:49;5.80;99.90
5492;DHT22;2768;53.540;10.224;2024-02-26T23:28:43;5.60;99.90
5492;DHT22;2768;53.540;10.224;2024-02-26T23:34:37;5.70;99.90
5492;DHT22;2768;53.540;10.224;2024-02-26T23:40:32;5.50;99.90
5492;DHT22;2768;53.540;10.224;2024-02-26T23:46:30;5.70;99.90
5492;DHT22;2768;53.540;10.224;2024-02-26T23:52:24;5.80;99.90
5492;DHT22;2768;53.540;10.224;2024-02-26T23:58:21;5.80;99.90
